Latest Weather Observations for Mortlake

IDV60801

Issued at 8:32 am EST Friday 21 July 2017 (issued every 30 minutes, with the page automatically refreshed every 10 minutes)

About weather observations | Map of weather stations | Latest weather observations for VIC | Other Formats
Station Details ID: 090176 Name: MORTLAKE RACECOURSE Lat: -38.07 Lon: 142.77 Height: 130.0 m
Data from the previous 72 hours. | See also: Recent months at Mortlake
Date/Time
EST
Temp
°C
App
Temp
°C
Dew
Point
°C
Rel
Hum
%
Delta-T
°C
Wind Press
QNH
hPa
Press
MSL
hPa
Rain since
9am
mm
Dir  Spd
km/h
Gust
km/h
Spd
kts
Gust
kts
21/08:30am 0.3 -3.0 0.3 100 0.0 NW 7 13 4 7 1024.0 1024.2 0.4
21/08:00am -1.1 -4.9 -1.1 100 0.0 NNW 9 9 5 5 1023.2 1023.4 0.4
21/07:30am -2.8 -6.3 -2.8 100 0.0 NNW 6 7 3 4 1023.5 1023.7 0.4
21/07:00am -3.2 -6.4 -3.2 100 0.0 NNW 4 4 2 2 1023.4 1023.6 0.4
21/06:30am -1.9 -4.9 -1.9 100 0.0 NNW 4 6 2 3 1023.1 1023.3 0.4
21/06:00am -2.6 -5.7 -2.7 99 -0.1 NNW 4 4 2 2 1023.0 1023.2 0.4
21/05:30am -0.8 -3.3 -0.8 100 0.0 NNW 2 2 1 1 1022.7 1022.9 0.4
21/05:00am -0.2 -3.4 -0.2 100 0.0 NNW 6 7 3 4 1022.3 1022.5 0.4
21/04:30am -1.2 -4.7 -1.2 100 0.0 NNW 7 9 4 5 1022.3 1022.5 0.4
21/04:00am -1.2 -4.7 -1.2 100 0.0 NNW 7 7 4 4 1022.5 1022.7 0.4
21/03:30am -2.0 -5.6 -2.0 100 0.0 NNW 7 9 4 5 1022.6 1022.8 0.4
21/03:00am -2.4 -5.8 -2.4 100 0.0 NNW 6 7 3 4 1022.7 1022.9 0.4
21/02:30am -2.6 -6.3 -2.6 100 0.0 NNW 7 7 4 4 1022.8 1023.0 0.4
21/02:00am -2.0 -5.4 -2.0 100 0.0 NNW 6 6 3 3 1022.8 1023.0 0.4
21/01:30am -1.5 -4.8 -1.5 100 0.0 NNW 6 6 3 3 1022.8 1023.0 0.4
21/01:00am -0.7 -3.9 -0.7 100 0.0 NNW 6 7 3 4 1023.0 1023.2 0.4
21/12:30am -1.2 -4.5 -1.2 100 0.0 NNW 6 6 3 3 1023.1 1023.3 0.4
21/12:00am -1.0 -4.3 -1.0 100 0.0 NNW 6 7 3 4 1023.2 1023.4 0.4
 
Date/Time
EST
Temp
°C
App
Temp
°C
Dew
Point
°C
Rel
Hum
%
Delta-T
°C
Wind Press
QNH
hPa
Press
MSL
hPa
Rain since
9am
mm
Dir  Spd
km/h
Gust
km/h
Spd
kts
Gust
kts
20/11:30pm -1.1 -4.4 -1.1 100 0.0 NNW 6 6 3 3 1023.1 1023.3 0.4
20/11:00pm -0.8 -4.0 -0.8 100 0.0 NNW 6 6 3 3 1023.1 1023.3 0.4
20/10:30pm -1.0 -4.3 -1.1 99 0.0 NNW 6 6 3 3 1022.9 1023.1 0.4
20/10:00pm -0.7 -3.6 -0.8 99 0.0 NNW 4 6 2 3 1022.8 1023.0 0.4
20/09:30pm -0.1 -2.9 -0.2 99 0.0 NNW 4 4 2 2 1022.7 1022.9 0.4
20/09:00pm 0.9 -1.8 0.6 98 0.1 S 4 6 2 3 1022.7 1022.9 0.4
20/08:30pm 1.1 -0.8 0.7 97 0.1 CALM 0 6 0 3 1022.6 1022.8 0.4
20/08:00pm 1.3 -0.6 0.7 96 0.2 CALM 0 0 0 0 1022.4 1022.6 0.4
20/07:30pm 1.7 -0.2 0.7 93 0.4 CALM 0 0 0 0 1022.1 1022.3 0.4
20/07:00pm 3.0 1.3 1.8 92 0.5 CALM 0 0 0 0 1021.9 1022.1 0.4
20/06:30pm 4.7 3.2 3.0 89 0.7 CALM 0 0 0 0 1021.6 1021.9 0.4
20/06:00pm 5.3 2.6 2.7 83 1.1 S 6 6 3 3 1021.6 1021.9 0.4
20/05:30pm 5.8 2.9 2.4 79 1.4 SSE 7 9 4 5 1021.5 1021.8 0.4
20/05:00pm 8.1 5.0 3.4 72 2.0 S 9 13 5 7 1021.4 1021.7 0.4
20/04:30pm 9.8 5.7 4.6 70 2.3 SSW 15 20 8 11 1021.3 1021.6 0.4
20/04:00pm 9.9 5.3 3.9 66 2.6 S 17 24 9 13 1021.2 1021.5 0.4
20/03:30pm 10.0 5.6 5.0 71 2.3 S 17 24 9 13 1021.0 1021.3 0.4
20/03:00pm 9.9 4.3 5.5 74 2.0 SSW 24 32 13 17 1020.8 1021.1 0.4
20/02:30pm 9.7 3.6 4.9 72 2.2 SSW 26 35 14 19 1020.6 1020.9 0.4
20/02:00pm 10.1 4.7 6.3 77 1.8 SSW 24 32 13 17 1020.4 1020.7 0.4
20/01:30pm 9.0 6.0 7.9 93 0.5 SSW 13 20 7 11 1020.5 1020.8 0.4
20/01:00pm 9.2 4.9 7.0 86 1.0 SW 19 26 10 14 1020.7 1021.0 0.2
20/12:30pm 8.5 1.2 5.4 81 1.4 SW 33 46 18 25 1021.0 1021.3 0.0
20/12:00pm 10.2 3.6 4.1 66 2.7 SW 28 43 15 23 1020.6 1020.9 0.0
20/11:30am 9.3 2.5 4.9 74 2.0 SW 30 43 16 23 1020.8 1021.1 0.0
20/11:00am 10.4 2.9 4.5 67 2.6 SW 33 43 18 23 1020.6 1020.9 0.0
20/10:30am 9.6 3.0 4.2 69 2.4 SW 28 41 15 22 1020.4 1020.7 0.0
20/10:00am 9.3 3.0 3.9 69 2.4 WSW 26 39 14 21 1020.1 1020.4 0.0
20/09:30am 9.1 3.4 4.7 74 2.0 SW 24 35 13 19 1020.0 1020.3 0.0
20/09:00am 7.9 3.1 4.5 79 1.5 SW 19 24 10 13 1019.7 1020.0 1.0
20/08:30am 7.6 1.6 3.6 76 1.7 SW 24 33 13 18 1019.3 1019.6 1.0
20/08:00am 7.4 1.4 3.6 77 1.6 SW 24 32 13 17 1019.2 1019.5 1.0
20/07:30am 7.6 2.3 6.9 95 0.3 SW 24 37 13 20 1018.9 1019.2 1.0
20/07:00am 7.9 4.6 7.9 100 0.0 SW 15 19 8 10 1018.7 1018.9 1.0
20/06:30am 7.5 3.7 7.5 100 0.0 WSW 17 24 9 13 1018.5 1018.7 1.0
20/06:00am 6.9 3.3 6.8 99 0.0 W 15 26 8 14 1018.3 1018.5 0.6
20/05:30am 6.3 3.0 6.3 100 0.0 WNW 13 19 7 10 1018.2 1018.4 0.4
20/05:00am 5.5 2.0 5.5 100 0.0 WNW 13 20 7 11 1018.2 1018.4 0.4
20/04:30am 5.6 2.0 5.2 97 0.2 WNW 13 17 7 9 1018.2 1018.4 0.4
20/04:00am 6.9 2.9 6.6 98 0.1 W 17 22 9 12 1018.2 1018.4 0.4
20/03:30am 6.2 2.8 6.1 99 0.0 WNW 13 17 7 9 1018.3 1018.5 0.4
20/03:00am 6.3 2.9 5.7 96 0.3 WNW 13 19 7 10 1018.5 1018.7 0.4
20/02:30am 6.8 3.1 6.4 97 0.2 WNW 15 20 8 11 1018.5 1018.7 0.4
20/02:00am 4.8 1.5 4.8 100 0.0 WNW 11 15 6 8 1018.5 1018.7 0.4
20/01:30am 5.5 2.4 5.5 100 0.0 WNW 11 15 6 8 1018.7 1018.9 0.4
20/01:00am 5.0 1.4 5.0 100 0.0 WNW 13 17 7 9 1019.0 1019.3 0.4
20/12:30am 5.0 1.0 5.0 100 0.0 NW 15 19 8 10 1019.2 1019.5 0.4
20/12:00am 5.6 2.1 5.6 100 0.0 WNW 13 17 7 9 1019.4 1019.7 0.4
 
Date/Time
EST
Temp
°C
App
Temp
°C
Dew
Point
°C
Rel
Hum
%
Delta-T
°C
Wind Press
QNH
hPa
Press
MSL
hPa
Rain since
9am
mm
Dir  Spd
km/h
Gust
km/h
Spd
kts
Gust
kts
19/11:30pm 4.5 1.1 4.1 97 0.2 WNW 11 13 6 7 1019.6 1019.9 0.4
19/11:00pm 5.5 1.4 4.6 94 0.4 WNW 15 20 8 11 1019.8 1020.1 0.4
19/10:30pm 6.0 2.4 5.1 94 0.4 W 13 19 7 10 1019.9 1020.2 0.4
19/10:00pm 6.0 1.9 4.5 90 0.6 WNW 15 20 8 11 1020.1 1020.4 0.4
19/09:30pm 6.1 2.5 5.2 94 0.4 W 13 17 7 9 1020.4 1020.7 0.4
19/09:00pm 5.9 2.7 5.0 94 0.4 WNW 11 17 6 9 1020.4 1020.7 0.4
19/08:30pm 5.6 2.2 3.8 88 0.8 W 11 15 6 8 1020.1 1020.4 0.4
19/08:00pm 7.0 3.8 5.0 87 0.9 W 11 15 6 8 1020.2 1020.5 0.4
19/07:30pm 7.2 4.0 5.3 88 0.8 W 11 17 6 9 1020.4 1020.7 0.4
19/07:00pm 7.4 3.9 5.4 87 0.9 WSW 13 19 7 10 1020.1 1020.4 0.4
19/06:30pm 6.6 3.7 4.6 87 0.9 WSW 9 13 5 7 1019.9 1020.2 0.4
19/06:00pm 6.5 3.1 4.0 84 1.1 WSW 11 15 6 8 1019.2 1019.5 0.4
19/05:30pm 7.8 4.6 4.9 82 1.3 SW 11 15 6 8 1018.9 1019.2 0.4
19/05:00pm 9.1 5.9 5.3 77 1.7 SW 11 17 6 9 1018.9 1019.2 0.4
19/04:30pm 9.9 5.2 5.1 72 2.2 SSW 19 26 10 14 1018.9 1019.2 0.4
19/04:00pm 10.4 5.0 6.4 76 1.9 SW 24 32 13 17 1018.7 1018.9 0.4
19/03:30pm 10.4 3.9 4.8 68 2.5 SW 28 39 15 21 1018.8 1019.1 0.4
19/03:00pm 10.2 3.8 5.0 70 2.4 SW 28 37 15 20 1018.3 1018.5 0.4
19/02:30pm 10.1 4.8 6.8 80 1.6 SW 24 35 13 19 1017.9 1018.1 0.4
19/02:00pm 9.8 4.7 7.7 87 1.0 SSW 24 33 13 18 1017.8 1018.0 0.4
19/01:30pm 10.5 3.8 7.2 80 1.6 SSW 32 44 17 24 1017.8 1018.0 0.4
19/01:00pm 10.0 3.5 8.3 89 0.8 SSW 32 46 17 25 1017.9 1018.1 0.4
19/12:33pm 10.7 4.3 9.3 91 0.7 SW 33 54 18 29 1017.6 1017.8 0.4
19/12:30pm 10.7 4.5 9.5 92 0.6 SW 32 43 17 23 1017.6 1017.8 0.4
19/12:00pm 10.7 4.4 9.0 89 0.8 SSW 32 43 17 23 1017.7 1017.9 0.4
19/11:30am 9.6 3.8 9.6 100 0.0 SSW 30 41 16 22 1017.6 1017.8 0.4
19/11:00am 11.0 4.9 8.4 84 1.3 SSW 30 41 16 22 1017.1 1017.3 0.0
19/10:30am 10.1 5.1 9.5 96 0.3 SSW 26 39 14 21 1016.9 1017.1 0.0
19/10:00am 10.0 5.3 9.2 95 0.4 SSW 24 37 13 20 1016.1 1016.3 0.0
19/09:30am 10.1 4.1 8.7 91 0.7 SSW 30 41 16 22 1015.7 1015.9 0.0
19/09:00am 9.1 4.7 9.1 100 0.0 SSW 22 33 12 18 1015.2 1015.4 7.4
19/08:30am 8.9 3.7 8.9 100 0.0 SSW 26 39 14 21 1014.6 1014.8 7.4
19/08:00am 9.2 4.9 9.2 100 0.0 SSW 22 33 12 18 1014.1 1014.3 6.6
19/07:30am 9.0 5.6 9.0 100 0.0 SSW 17 22 9 12 1013.4 1013.7 5.2
19/07:00am 9.4 4.7 9.4 100 0.0 SSW 24 35 13 19 1012.9 1013.2 5.2
19/06:30am 9.7 4.7 9.6 99 0.1 SSW 26 39 14 21 1012.3 1012.5 4.8
19/06:00am 9.6 5.7 9.6 100 0.0 SSW 20 26 11 14 1011.7 1011.9 4.8
19/05:30am 9.9 3.8 9.9 100 0.0 SSW 32 46 17 25 1010.9 1011.1 4.6
19/05:00am 10.0 5.1 10.0 100 0.0 SSW 26 39 14 21 1010.1 1010.3 4.6
19/04:30am 10.0 5.5 10.0 100 0.0 SSW 24 35 13 19 1009.5 1009.7 4.0
19/04:00am 9.8 7.3 9.8 100 0.0 SW 13 19 7 10 1009.2 1009.4 4.0
19/03:30am 9.5 7.3 9.5 100 0.0 WSW 11 17 6 9 1008.8 1009.0 3.8
19/03:00am 8.7 6.3 8.7 100 0.0 W 11 15 6 8 1008.7 1008.9 3.8
19/02:30am 9.1 6.8 9.1 100 0.0 W 11 17 6 9 1008.7 1008.9 3.4
19/02:00am 9.3 7.1 9.3 100 0.0 W 11 15 6 8 1008.4 1008.6 3.4
19/01:30am 9.1 6.4 9.1 100 0.0 W 13 19 7 10 1008.1 1008.3 3.2
19/01:00am 8.9 6.6 8.9 100 0.0 W 11 19 6 10 1007.9 1008.1 3.2
19/12:30am 8.7 5.6 8.7 100 0.0 WNW 15 24 8 13 1007.8 1008.0 3.2
19/12:00am 8.3 5.8 8.3 100 0.0 WNW 11 17 6 9 1007.7 1007.9 3.2
 
Date/Time
EST
Temp
°C
App
Temp
°C
Dew
Point
°C
Rel
Hum
%
Delta-T
°C
Wind Press
QNH
hPa
Press
MSL
hPa
Rain since
9am
mm
Dir  Spd
km/h
Gust
km/h
Spd
kts
Gust
kts
18/11:30pm 8.1 5.6 8.1 100 0.0 WNW 11 17 6 9 1007.6 1007.8 2.8
18/11:00pm 7.9 5.7 7.9 100 0.0 WNW 9 13 5 7 1007.4 1007.6 2.6
18/10:30pm 8.5 6.5 8.5 100 0.0 W 9 13 5 7 1007.4 1007.6 2.6
18/10:00pm 8.2 6.6 8.2 100 0.0 W 6 7 3 4 1007.5 1007.7 2.0
18/09:30pm 8.1 5.6 8.1 100 0.0 WNW 11 13 6 7 1007.3 1007.5 1.2
18/09:00pm 8.2 5.7 8.2 100 0.0 NW 11 17 6 9 1007.3 1007.5 0.6
18/08:30pm 8.2 5.7 8.1 99 0.0 WNW 11 17 6 9 1006.9 1007.1 0.2
18/08:00pm 7.8 4.7 7.1 95 0.3 WNW 13 15 7 8 1006.6 1006.8 0.2
18/07:30pm 8.6 6.0 7.8 95 0.4 NW 11 13 6 7 1006.4 1006.6 0.2
18/07:00pm 7.9 6.1 7.1 95 0.4 WNW 6 9 3 5 1006.3 1006.5 0.2
18/06:30pm 7.5 5.6 6.8 95 0.3 WNW 6 9 3 5 1006.1 1006.2 0.2
18/06:00pm 7.0 4.2 5.3 89 0.8 NW 9 11 5 6 1005.7 1005.9 0.2
18/05:30pm 8.8 5.7 5.5 80 1.5 NW 11 15 6 8 1005.5 1005.7 0.2
18/05:00pm 10.7 7.0 6.3 74 2.1 NW 15 20 8 11 1005.4 1005.6 0.2
18/04:30pm 12.2 8.4 7.5 73 2.3 WNW 17 24 9 13 1005.2 1005.4 0.0
18/04:00pm 11.6 6.7 6.7 72 2.4 NW 22 30 12 16 1005.0 1005.2 0.0
18/03:30pm 12.2 6.1 6.5 68 2.7 NW 28 37 15 20 1005.0 1005.2 0.0
18/03:00pm 13.1 7.2 7.5 69 2.8 NW 28 37 15 20 1004.9 1005.1 0.0
18/02:30pm 12.2 7.4 7.5 73 2.3 WNW 22 33 12 18 1004.8 1005.0 0.0
18/02:00pm 12.6 6.7 7.3 70 2.6 WNW 28 39 15 21 1004.7 1004.9 0.0
18/01:30pm 13.2 8.2 7.9 70 2.6 WNW 24 37 13 20 1004.8 1005.0 0.0
18/01:00pm 12.6 6.7 7.7 72 2.4 NW 28 35 15 19 1005.1 1005.3 0.0
18/12:30pm 12.2 8.2 8.9 80 1.7 NW 20 28 11 15 1005.4 1005.6 0.0
18/12:00pm 12.5 7.7 8.8 78 1.9 NW 24 35 13 19 1005.9 1006.0 0.0
18/11:30am 11.9 7.4 8.7 81 1.6 NW 22 35 12 19 1006.1 1006.2 0.0
18/11:00am 10.8 5.6 8.7 87 1.0 NW 26 35 14 19 1006.3 1006.5 0.0
18/10:30am 10.3 5.3 8.2 87 1.0 NW 24 39 13 21 1006.4 1006.6 0.0
18/10:00am 10.1 5.9 8.4 89 0.8 NW 20 30 11 16 1006.3 1006.5 0.0
18/09:30am 8.9 3.8 7.7 92 0.6 NW 24 32 13 17 1006.1 1006.2 0.0
18/09:00am 8.1 4.0 7.7 97 0.2 NW 19 26 10 14 1006.1 1006.2 5.4

Other Formats:

Comma delimited format used in spreadsheet applications
http://www.bom.gov.au/fwo/IDV60801/IDV60801.94840.axf

JavaScript Object Notation format (JSON) in row-major order
http://www.bom.gov.au/fwo/IDV60801/IDV60801.94840.json